Aérodrome :







RETROUVEZ-NOUS SUR...

 
LOGIN :

S'inscrire | Disclaimer

   EN    FR    IT 

 









Légende :    VFR   VFR Marginal   IFR   IFR Intensif   IFR Très Intensif
Visi : 
Plafond : 
>= 8 km
>= 3000ft
5 à 8 km
1000 à 3000 ft
1500m à 5 km
500 à 1000 ft
800 à 1500m
200 à 500 ft
< 800m
< 200 ft
Symboles :   Orages  Brouillard  Fortes neiges  Fortes précipitations  Vent > 20 kt






- Altitude de l'aérodrome : 1808 ft
- Code IATA : YWK


CYWK - Wabush

DERNIER METAR :
  • 180800Z AUTO 30012G17KT 9SM OVC050 M27/M32 A3012 RMK SLP274

METARs EXPIRÉS :
  • 180756Z AUTO 30008G16KT 9SM OVC050 M27/M32 A3012 RMK SLP275
  • 180709Z AUTO 28011G19KT 250V320 8SM -SN OVC041 M26/M32 A3013 RMK SLP277
  • 180611Z AUTO 29010KT 240V310 9SM SCT022 OVC041 M27/M32 A3013 RMK SLP278
  • 180600Z AUTO 27005KT 220V310 9SM BKN020 OVC041 M27/M32 A3013 RMK SLP280

TAF TAF CYWK
Valide du 18 à 08h jusqu'au 18 à 20h UTC


180738Z 1808/1820 29012KT P6SM BKN040
TEMPO 1808/1820 5SM -SN BKN020
BECMG 1812/1814 30010G20KT RMK FCST BASED ON AUTO OBS. NXT FCST BY 181400Z



MET'MAP, la Météo Aéronautique d'un coup d'oeil ! - Copyright ORBIFLY Décembre 2007 - Disclaimer

ORBIFLY MET'MAP TEAM :

Programmation & Développement : Alexandra Zaïnal
Sur une idée originale de : Baudouin d'Aumeries
Assistance à la programmation : Marc-Olivier Méhu
Soutien technique & logistique : Manuel Goepfert

Contact : metmap@orbifly.com




SOURCES & CREDITS :

   NOAA